Greenbush, Maine
Current Conditions -  °F | °C
As of 2:53 PM on Thursday 23 Oct 2014 (Local Time) from KBGR Reporting Station
Haze Haze  
Wind Chill: 51°   Ceiling: 900
Heat Index: 51°   Visibility: 6mi
Dew Point: 48°   Wind: 16mph
Humidity: 89%   Direction: 30°NNE
Pressure: 29.85"   Gusts: 24mph
Location:  45.0802°N, 68.5883°W
Report Text: KBGR 231853Z 03014G21KT 6SM BR BKN009 OVC015 11/09 A2985 RMK AO2 RAE47 SLP107 P0003 T01060089
Loading
Personal Weather Stations






























Interactive Weather Map
Tropical Storm Tracking
New forecast layout! Learn more

10-Day Weather Forecast

Advertisements
Track Severe Weather on mobile